createdAt,value
2023-04-22T02:41:22.308Z,23.65
2023-04-22T02:43:48.994Z,21.20
2023-04-22T02:46:19.053Z,20.08
2023-04-22T02:48:45.701Z,20.65
2023-04-22T02:51:12.463Z,19.85
2023-04-22T02:53:39.106Z,19.88
2023-04-22T02:56:05.832Z,22.50
2023-04-22T02:58:32.338Z,22.48
2023-04-22T03:00:59.011Z,20.30
2023-04-22T03:03:26.017Z,21.15
2023-04-22T03:05:52.720Z,20.17
2023-04-22T03:08:19.776Z,23.02
2023-04-22T03:10:46.429Z,19.83
2023-04-22T03:13:13.717Z,19.15
2023-04-22T03:15:41.125Z,16.75
2023-04-22T03:18:07.971Z,19.13
2023-04-22T03:20:35.193Z,17.02
2023-04-22T03:23:02.206Z,16.02
2023-04-22T03:25:28.750Z,15.00
2023-04-22T03:27:55.327Z,15.27
2023-04-22T03:30:21.981Z,13.50
2023-04-22T03:32:48.618Z,18.08
2023-04-22T03:35:15.228Z,11.90
2023-04-22T03:37:41.720Z,13.98
2023-04-22T03:40:08.902Z,13.13
2023-04-22T03:42:35.417Z,13.82
2023-04-22T03:45:01.942Z,12.02
2023-04-22T03:47:28.486Z,13.95
2023-04-22T03:49:55.042Z,14.05
2023-04-22T03:52:21.554Z,9.27
2023-04-22T03:54:48.039Z,12.55
2023-04-22T03:57:14.629Z,10.75
2023-04-22T03:59:41.522Z,11.68
2023-04-22T04:02:08.956Z,17.17
2023-04-22T04:04:35.832Z,13.38
2023-04-22T04:07:02.642Z,12.30
2023-04-22T04:09:29.213Z,12.88
2023-04-22T04:11:56.792Z,12.73
2023-04-22T04:14:23.278Z,11.95
2023-04-22T04:16:49.811Z,11.63
2023-04-22T04:19:16.299Z,12.05
2023-04-22T04:21:43.561Z,12.50
2023-04-22T04:24:10.040Z,12.10
2023-04-22T04:26:37.901Z,12.45
2023-04-22T04:29:05.778Z,9.32
2023-04-22T04:31:32.357Z,10.10
2023-04-22T04:33:59.115Z,12.07
2023-04-22T04:36:29.419Z,11.70
2023-04-22T04:38:56.503Z,10.30
2023-04-22T04:41:23.478Z,11.55
2023-04-22T04:43:50.511Z,11.88
2023-04-22T04:46:17.066Z,10.63
2023-04-22T04:48:46.066Z,11.27
2023-04-22T04:51:13.091Z,10.90
2023-04-22T04:53:40.344Z,11.00
2023-04-22T04:56:06.828Z,11.85
2023-04-22T04:58:33.356Z,11.15
2023-04-22T05:00:59.917Z,11.10
2023-04-22T05:03:26.700Z,9.82
2023-04-22T05:05:53.473Z,9.80
2023-04-22T05:08:20.005Z,11.43
2023-04-22T05:10:46.509Z,12.73
2023-04-22T05:13:13.091Z,13.73
2023-04-22T05:15:39.723Z,10.10
2023-04-22T05:18:06.814Z,9.18
2023-04-22T05:20:35.814Z,11.63
2023-04-22T05:23:02.702Z,10.50
2023-04-22T05:25:29.287Z,11.52
2023-04-22T05:27:55.781Z,11.35
2023-04-22T05:30:22.328Z,10.90
2023-04-22T05:32:48.862Z,12.25
2023-04-22T05:35:15.441Z,11.32
2023-04-22T05:37:41.972Z,9.90
2023-04-22T05:40:08.822Z,9.25
2023-04-22T05:42:35.376Z,9.10
2023-04-22T05:45:01.989Z,10.23
2023-04-22T05:47:28.584Z,9.70
2023-04-22T05:49:55.117Z,9.07
2023-04-22T05:52:21.640Z,9.93
2023-04-22T05:54:48.122Z,10.10
2023-04-22T05:57:14.668Z,13.52
2023-04-22T05:59:41.323Z,10.93
2023-04-22T06:02:08.163Z,11.80
2023-04-22T06:04:37.289Z,10.98
2023-04-22T06:07:04.694Z,10.70
2023-04-22T06:09:31.232Z,12.95
2023-04-22T06:11:58.243Z,9.65
2023-04-22T06:14:24.809Z,13.60
2023-04-22T06:16:52.821Z,9.95
2023-04-22T06:19:19.527Z,12.05
2023-04-22T06:21:46.210Z,11.25
2023-04-22T06:24:12.686Z,10.50
2023-04-22T06:26:39.204Z,13.98
2023-04-22T06:29:05.941Z,14.02
2023-04-22T06:31:32.649Z,10.88
2023-04-22T06:33:59.726Z,13.90
2023-04-22T06:36:30.237Z,14.70
2023-04-22T06:38:57.237Z,10.55
2023-04-22T06:41:23.747Z,12.68
2023-04-22T06:43:50.289Z,12.77
2023-04-22T06:46:17.459Z,14.85
2023-04-22T06:48:44.009Z,9.90
2023-04-22T06:51:10.669Z,12.48
2023-04-22T06:53:37.188Z,12.40
2023-04-22T06:56:03.990Z,13.70
2023-04-22T06:58:30.731Z,11.68
2023-04-22T07:00:57.237Z,9.90
2023-04-22T07:03:23.991Z,13.82
2023-04-22T07:05:50.850Z,11.10
2023-04-22T07:08:17.528Z,12.25
2023-04-22T07:10:44.082Z,12.05
2023-04-22T07:13:10.571Z,15.55
2023-04-22T07:15:37.106Z,9.73
2023-04-22T07:18:03.725Z,11.23
2023-04-22T07:20:30.276Z,7.65
2023-04-22T07:22:56.809Z,9.68
2023-04-22T07:25:23.680Z,10.27
2023-04-22T07:27:50.214Z,8.18
2023-04-22T07:30:17.077Z,9.40
2023-04-22T07:32:43.636Z,6.70
2023-04-22T07:35:10.192Z,8.50
2023-04-22T07:37:36.714Z,10.93
2023-04-22T07:40:03.431Z,7.65
2023-04-22T07:42:29.953Z,6.18
2023-04-22T07:44:56.453Z,7.80
2023-04-22T07:47:23.098Z,8.85
2023-04-22T07:49:49.699Z,6.72
2023-04-22T07:52:16.178Z,6.53
2023-04-22T07:54:42.676Z,8.63
2023-04-22T07:57:09.219Z,6.05
2023-04-22T07:59:35.713Z,7.22
2023-04-22T08:02:02.255Z,6.97
2023-04-22T08:04:29.100Z,7.68
2023-04-22T08:06:56.264Z,5.95
2023-04-22T08:09:22.959Z,8.07
2023-04-22T08:11:49.507Z,6.65
2023-04-22T08:14:16.101Z,7.13
2023-04-22T08:16:42.755Z,8.80
2023-04-22T08:19:09.320Z,7.47
2023-04-22T08:21:37.370Z,9.45
2023-04-22T08:24:04.195Z,6.63
2023-04-22T08:26:30.794Z,6.20
2023-04-22T08:28:57.329Z,6.18
2023-04-22T08:31:23.935Z,8.10
2023-04-22T08:33:51.151Z,6.43
2023-04-22T08:36:17.768Z,8.98
2023-04-22T08:38:44.349Z,8.55
2023-04-22T08:41:10.956Z,8.57
2023-04-22T08:43:37.526Z,9.48
2023-04-22T08:46:04.101Z,6.40
2023-04-22T08:48:32.202Z,5.60
2023-04-22T08:50:58.807Z,6.60
2023-04-22T08:53:25.515Z,5.97
2023-04-22T08:55:52.043Z,5.43
2023-04-22T08:58:18.590Z,6.32
2023-04-22T09:00:45.363Z,6.15
2023-04-22T09:03:12.265Z,5.22
2023-04-22T09:05:40.167Z,7.60
2023-04-22T09:08:08.018Z,6.07
2023-04-22T09:10:37.223Z,6.63
2023-04-22T09:13:04.649Z,8.32
2023-04-22T09:15:31.152Z,7.55
2023-04-22T09:17:58.696Z,7.90
2023-04-22T09:20:29.110Z,6.43
2023-04-22T09:22:56.755Z,7.82
2023-04-22T09:25:24.374Z,8.63
2023-04-22T09:27:52.153Z,6.85
2023-04-22T09:30:23.145Z,9.07
2023-04-22T09:32:54.031Z,6.60
2023-04-22T09:35:33.962Z,7.90
2023-04-22T09:38:01.384Z,5.40
2023-04-22T09:40:28.379Z,6.43
2023-04-22T09:42:55.975Z,10.98
2023-04-22T09:45:41.897Z,7.97
2023-04-22T09:48:09.794Z,6.20
2023-04-22T09:50:37.312Z,5.50
2023-04-22T09:53:05.116Z,7.20
2023-04-22T09:55:33.481Z,8.20
2023-04-22T09:58:04.994Z,5.00
2023-04-22T10:00:31.651Z,7.30
2023-04-22T10:02:58.346Z,5.65
2023-04-22T10:05:25.530Z,4.47
2023-04-22T10:07:52.252Z,6.35
2023-04-22T10:10:18.828Z,5.00
2023-04-22T10:12:47.097Z,6.80
2023-04-22T10:15:13.832Z,5.53
2023-04-22T10:17:41.328Z,4.95
2023-04-22T10:20:13.658Z,6.47
2023-04-22T10:22:42.881Z,4.63
2023-04-22T10:25:13.139Z,5.18
2023-04-22T10:27:39.906Z,4.82
2023-04-22T10:30:07.441Z,3.65
2023-04-22T10:32:34.079Z,3.83
2023-04-22T10:35:11.953Z,5.78
2023-04-22T10:37:41.345Z,4.20
2023-04-22T10:40:25.774Z,4.60
2023-04-22T10:42:52.894Z,6.10
2023-04-22T10:45:24.094Z,5.55
2023-04-22T10:47:50.724Z,5.07
2023-04-22T10:50:18.792Z,5.78
2023-04-22T10:52:52.637Z,11.43
2023-04-22T10:55:19.581Z,4.47
2023-04-22T10:57:47.395Z,5.20
2023-04-22T11:00:21.941Z,6.60
2023-04-22T11:02:52.883Z,5.78
2023-04-22T11:05:19.553Z,9.43
2023-04-22T11:07:47.160Z,6.30
2023-04-22T11:10:30.116Z,7.50
2023-04-22T11:12:57.185Z,6.55
2023-04-22T11:15:23.722Z,6.72
2023-04-22T11:17:54.288Z,9.77
2023-04-22T11:20:21.306Z,5.47
2023-04-22T11:22:48.744Z,6.25
2023-04-22T11:25:15.517Z,7.90
2023-04-22T11:27:43.781Z,7.45
2023-04-22T11:30:17.323Z,6.95
2023-04-22T11:32:45.049Z,9.15
2023-04-22T11:35:12.766Z,7.93
2023-04-22T11:37:42.293Z,9.60
2023-04-22T11:40:28.224Z,10.18
2023-04-22T11:42:56.880Z,8.48
2023-04-22T11:45:23.686Z,9.40
2023-04-22T11:47:51.291Z,7.90
2023-04-22T11:50:19.122Z,7.20
2023-04-22T11:52:45.734Z,7.70
2023-04-22T11:55:16.286Z,10.45
2023-04-22T11:57:43.575Z,10.32
2023-04-22T12:00:14.295Z,8.25
2023-04-22T12:02:41.877Z,7.80
2023-04-22T12:05:12.500Z,7.95
2023-04-22T12:07:39.971Z,7.15
2023-04-22T12:10:07.960Z,8.13
2023-04-22T12:12:36.160Z,9.82
2023-04-22T12:15:13.797Z,12.98
2023-04-22T12:17:40.967Z,8.63
2023-04-22T12:20:11.144Z,10.88
2023-04-22T12:22:38.922Z,10.00
2023-04-22T12:25:05.608Z,9.25
2023-04-22T12:27:32.168Z,11.70
2023-04-22T12:29:58.699Z,12.90
2023-04-22T12:32:26.551Z,8.10
2023-04-22T12:34:53.571Z,11.88
2023-04-22T12:37:20.253Z,9.20
2023-04-22T12:39:46.922Z,11.90
2023-04-22T12:42:13.414Z,10.75
2023-04-22T12:44:39.968Z,12.07
2023-04-22T12:47:06.537Z,16.17
2023-04-22T12:49:33.050Z,11.15
2023-04-22T12:51:59.543Z,12.23
2023-04-22T12:54:26.134Z,10.82
2023-04-22T12:56:52.711Z,10.82
2023-04-22T12:59:19.400Z,11.88
2023-04-22T13:01:45.925Z,12.02
2023-04-22T13:04:12.582Z,10.57
2023-04-22T13:06:39.288Z,11.85
2023-04-22T13:09:06.711Z,10.98
2023-04-22T13:11:33.281Z,7.38
2023-04-22T13:13:59.771Z,9.20
2023-04-22T13:16:26.329Z,11.05
2023-04-22T13:18:52.881Z,10.05
2023-04-22T13:21:19.386Z,13.15
2023-04-22T13:23:45.908Z,11.68
2023-04-22T13:26:12.444Z,13.68
2023-04-22T13:28:38.963Z,12.57
2023-04-22T13:31:05.558Z,10.20
2023-04-22T13:33:32.096Z,13.13
2023-04-22T13:35:58.829Z,11.45
2023-04-22T13:38:25.513Z,10.80
2023-04-22T13:40:52.049Z,13.55
2023-04-22T13:43:18.604Z,13.38
2023-04-22T13:45:45.502Z,11.20
2023-04-22T13:48:12.047Z,13.95
2023-04-22T13:50:42.645Z,10.65
2023-04-22T13:53:12.632Z,12.85
2023-04-22T13:55:39.657Z,11.65
2023-04-22T13:58:06.740Z,13.25
2023-04-22T14:00:36.332Z,18.85
2023-04-22T14:03:03.023Z,13.68
2023-04-22T14:05:29.635Z,14.52
2023-04-22T14:07:56.279Z,10.50
2023-04-22T14:10:22.848Z,11.82
2023-04-22T14:12:49.417Z,16.38
2023-04-22T14:15:16.035Z,13.63
2023-04-22T14:17:42.740Z,14.13
2023-04-22T14:20:11.223Z,19.52
2023-04-22T14:22:37.802Z,14.68
2023-04-22T14:25:04.491Z,16.30
2023-04-22T14:27:31.062Z,12.52
2023-04-22T14:29:57.644Z,19.77
2023-04-22T14:32:25.864Z,13.48
2023-04-22T14:34:52.600Z,11.32
2023-04-22T14:37:19.152Z,10.75
2023-04-22T14:39:45.845Z,13.77
2023-04-22T14:42:12.390Z,16.10
2023-04-22T14:44:38.927Z,18.27
2023-04-22T14:47:05.464Z,14.93
2023-04-22T14:49:33.291Z,16.08
2023-04-22T14:52:01.216Z,16.75
2023-04-22T14:54:28.080Z,12.65
2023-04-22T14:56:56.017Z,15.32
2023-04-22T14:59:22.665Z,12.50
2023-04-22T15:01:49.337Z,14.85
2023-04-22T15:04:16.706Z,13.98
2023-04-22T15:06:43.316Z,15.15
2023-04-22T15:09:09.851Z,14.23
2023-04-22T15:11:36.372Z,16.55
2023-04-22T15:14:02.871Z,13.65
2023-04-22T15:16:29.999Z,16.90
2023-04-22T15:18:56.668Z,15.15
2023-04-22T15:21:23.196Z,14.88
2023-04-22T15:23:49.704Z,14.30
2023-04-22T15:26:16.600Z,14.82
2023-04-22T15:28:43.180Z,18.90
2023-04-22T15:31:09.746Z,13.98
2023-04-22T15:33:36.703Z,16.35
2023-04-22T15:36:05.322Z,12.15
2023-04-22T15:38:31.862Z,26.10
2023-04-22T15:40:58.427Z,18.23
2023-04-22T15:43:24.932Z,14.63
2023-04-22T15:45:51.481Z,18.10
2023-04-22T15:48:17.985Z,17.38
2023-04-22T15:50:44.567Z,18.15
2023-04-22T15:53:11.268Z,17.17
2023-04-22T15:55:38.127Z,15.05
2023-04-22T15:58:05.032Z,19.02
2023-04-22T16:00:31.582Z,16.23
2023-04-22T16:02:58.614Z,18.52
2023-04-22T16:05:25.452Z,19.00
2023-04-22T16:07:55.160Z,16.33
2023-04-22T16:10:21.767Z,17.73
2023-04-22T16:12:48.259Z,16.90
2023-04-22T16:15:14.871Z,19.85
2023-04-22T16:17:41.731Z,17.95
2023-04-22T16:20:08.779Z,17.73
2023-04-22T16:22:35.404Z,19.38
2023-04-22T16:25:02.074Z,16.98
2023-04-22T16:27:28.572Z,20.55
2023-04-22T16:29:55.472Z,16.50
2023-04-22T16:32:22.018Z,14.48
2023-04-22T16:34:48.579Z,20.80
2023-04-22T16:37:15.385Z,15.85
2023-04-22T16:39:42.253Z,21.73
2023-04-22T16:42:08.847Z,16.95
2023-04-22T16:44:35.427Z,20.70
2023-04-22T16:47:02.002Z,23.20
2023-04-22T16:49:28.644Z,17.63
2023-04-22T16:51:55.248Z,17.30
2023-04-22T16:54:21.807Z,18.83
2023-04-22T16:56:48.305Z,15.73
2023-04-22T16:59:14.885Z,15.65
2023-04-22T17:01:42.139Z,14.25
2023-04-22T17:04:08.881Z,16.70
2023-04-22T17:06:36.594Z,16.00
2023-04-22T17:09:05.754Z,18.48
2023-04-22T17:11:32.373Z,14.32
2023-04-22T17:13:59.170Z,15.25
2023-04-22T17:16:25.815Z,16.73
2023-04-22T17:18:52.389Z,21.02
2023-04-22T17:21:23.461Z,19.70
2023-04-22T17:23:50.334Z,19.77
2023-04-22T17:26:16.949Z,15.60
2023-04-22T17:28:43.442Z,19.17
2023-04-22T17:31:10.050Z,16.00
2023-04-22T17:33:36.795Z,23.90
2023-04-22T17:36:03.843Z,17.52
2023-04-22T17:38:31.011Z,15.75
2023-04-22T17:40:57.507Z,14.38
2023-04-22T17:43:24.108Z,17.95
2023-04-22T17:45:50.756Z,15.82
2023-04-22T17:48:17.239Z,13.07
2023-04-22T17:50:43.728Z,13.02
2023-04-22T17:53:10.384Z,11.80
2023-04-22T17:55:36.906Z,22.52
2023-04-22T17:58:03.980Z,13.25
2023-04-22T18:00:31.133Z,11.73
2023-04-22T18:02:57.826Z,17.95
2023-04-22T18:05:24.762Z,15.07
2023-04-22T18:07:52.574Z,18.25
2023-04-22T18:10:19.132Z,11.05
2023-04-22T18:12:45.936Z,18.58
2023-04-22T18:15:12.445Z,16.85
2023-04-22T18:17:38.985Z,18.00
2023-04-22T18:20:17.664Z,17.05
2023-04-22T18:22:46.750Z,14.90
2023-04-22T18:25:13.329Z,14.15
2023-04-22T18:27:39.864Z,18.05
2023-04-22T18:30:06.786Z,12.57
2023-04-22T18:32:33.302Z,15.13
2023-04-22T18:34:59.958Z,13.35
2023-04-22T18:37:29.726Z,12.30
2023-04-22T18:39:56.931Z,16.23
2023-04-22T18:42:23.785Z,14.05
2023-04-22T18:44:50.660Z,13.10
2023-04-22T18:47:17.269Z,11.20
2023-04-22T18:49:45.474Z,14.43
2023-04-22T18:52:12.153Z,16.77
2023-04-22T18:54:39.302Z,16.25
2023-04-22T18:57:06.267Z,12.65
2023-04-22T18:59:32.791Z,12.93
2023-04-22T19:01:59.429Z,13.20
2023-04-22T19:04:26.336Z,18.58
2023-04-22T19:06:52.927Z,16.50
2023-04-22T19:09:19.584Z,13.75
2023-04-22T19:11:46.176Z,21.55
2023-04-22T19:14:14.601Z,14.35
2023-04-22T19:16:41.182Z,12.18
2023-04-22T19:19:08.137Z,14.20
2023-04-22T19:21:34.879Z,15.45
2023-04-22T19:24:01.437Z,19.23
2023-04-22T19:26:29.063Z,13.82
2023-04-22T19:28:56.830Z,13.70
2023-04-22T19:31:23.476Z,13.18
2023-04-22T19:33:49.983Z,14.85
2023-04-22T19:36:16.742Z,14.88
2023-04-22T19:38:43.609Z,12.18
2023-04-22T19:41:11.612Z,12.35
2023-04-22T19:43:38.478Z,11.77
2023-04-22T19:46:05.319Z,16.83
2023-04-22T19:48:32.141Z,15.55
2023-04-22T19:50:59.208Z,13.05
2023-04-22T19:53:25.923Z,13.20
2023-04-22T19:55:52.820Z,17.70
2023-04-22T19:58:19.743Z,15.52
2023-04-22T20:00:46.576Z,8.48
2023-04-22T20:03:14.606Z,11.57
2023-04-22T20:05:41.684Z,9.43
2023-04-22T20:08:08.991Z,11.65
2023-04-22T20:10:36.426Z,12.57
2023-04-22T20:13:04.610Z,13.48
2023-04-22T20:15:31.244Z,12.65
2023-04-22T20:17:57.905Z,11.55
2023-04-22T20:20:24.579Z,11.77
2023-04-22T20:22:52.488Z,15.90
2023-04-22T20:25:19.145Z,12.95
2023-04-22T20:27:45.935Z,9.45
2023-04-22T20:30:13.785Z,17.30
2023-04-22T20:32:40.491Z,10.13
2023-04-22T20:35:07.323Z,13.07
2023-04-22T20:37:36.091Z,10.48
2023-04-22T20:40:04.651Z,17.63
2023-04-22T20:42:32.816Z,11.35
2023-04-22T20:44:59.440Z,14.07
2023-04-22T20:47:26.069Z,12.65
2023-04-22T20:49:52.624Z,14.73
2023-04-22T20:52:19.361Z,14.15
2023-04-22T20:54:46.123Z,9.52
2023-04-22T20:57:13.065Z,9.77
2023-04-22T20:59:39.639Z,13.90
2023-04-22T21:02:07.105Z,13.95
2023-04-22T21:04:34.610Z,10.23
2023-04-22T21:07:04.408Z,12.23
2023-04-22T21:09:32.195Z,11.98
2023-04-22T21:11:58.924Z,13.50
2023-04-22T21:14:28.535Z,11.73
2023-04-22T21:17:01.017Z,9.25
2023-04-22T21:19:31.685Z,13.70
2023-04-22T21:21:59.516Z,11.65
2023-04-22T21:24:26.614Z,13.77
2023-04-22T21:26:53.723Z,14.23
2023-04-22T21:29:20.377Z,12.65
2023-04-22T21:31:57.668Z,13.68
2023-04-22T21:34:31.880Z,15.20
2023-04-22T21:36:58.377Z,13.93
2023-04-22T21:39:25.033Z,13.52
2023-04-22T21:41:51.736Z,10.77
2023-04-22T21:44:18.286Z,18.30
2023-04-22T21:46:45.538Z,12.98
2023-04-22T21:49:12.094Z,14.80
2023-04-22T21:51:38.640Z,14.07
2023-04-22T21:54:05.247Z,10.57
2023-04-22T21:56:33.600Z,10.05
2023-04-22T21:59:00.712Z,12.10
2023-04-22T22:01:27.326Z,11.18
2023-04-22T22:03:54.174Z,12.63
2023-04-22T22:06:20.889Z,12.30
2023-04-22T22:08:47.558Z,13.70
2023-04-22T22:11:27.626Z,20.65
2023-04-22T22:13:56.735Z,16.08
2023-04-22T22:16:23.425Z,13.32
2023-04-22T22:18:50.220Z,17.15
2023-04-22T22:21:16.798Z,15.07
2023-04-22T22:23:43.415Z,13.70
2023-04-22T22:26:09.938Z,20.02
2023-04-22T22:28:36.506Z,16.70
2023-04-22T22:31:03.034Z,17.55
2023-04-22T22:33:29.783Z,17.50
2023-04-22T22:35:56.690Z,15.45
2023-04-22T22:38:23.176Z,14.93
2023-04-22T22:40:49.693Z,20.98
2023-04-22T22:43:16.344Z,14.50
2023-04-22T22:45:43.012Z,17.55
2023-04-22T22:48:09.662Z,17.75
2023-04-22T22:50:36.267Z,20.02
2023-04-22T22:53:02.813Z,21.00
2023-04-22T22:55:29.342Z,18.23
2023-04-22T22:57:55.883Z,15.13
2023-04-22T23:00:22.398Z,18.95
2023-04-22T23:02:49.141Z,22.15
2023-04-22T23:05:15.845Z,15.70
2023-04-22T23:07:42.346Z,18.08
2023-04-22T23:10:09.174Z,19.08
2023-04-22T23:12:35.752Z,17.95
2023-04-22T23:15:02.469Z,15.77
2023-04-22T23:17:29.003Z,17.50
2023-04-22T23:19:55.885Z,24.38
2023-04-22T23:22:23.270Z,19.27
2023-04-22T23:24:49.897Z,26.17
2023-04-22T23:27:17.507Z,16.77
2023-04-22T23:29:44.459Z,18.17
2023-04-22T23:32:14.954Z,22.45
2023-04-22T23:34:44.038Z,16.75
2023-04-22T23:37:13.659Z,15.43
2023-04-22T23:39:42.015Z,22.80
2023-04-22T23:42:08.629Z,17.58
2023-04-22T23:44:35.146Z,19.48
2023-04-22T23:47:01.726Z,18.30
2023-04-22T23:49:28.988Z,15.98
2023-04-22T23:51:55.886Z,24.08
2023-04-22T23:54:22.536Z,22.40
2023-04-22T23:56:49.224Z,28.33
2023-04-22T23:59:15.861Z,18.00
